createdAt,value
2019-04-22T00:01:04.788Z,99.90
2019-04-22T00:03:38.641Z,99.90
2019-04-22T00:06:27.400Z,99.90
2019-04-22T00:08:56.160Z,99.90
2019-04-22T00:11:31.907Z,99.90
2019-04-22T00:13:57.103Z,99.90
2019-04-22T00:16:33.202Z,99.90
2019-04-22T00:21:33.317Z,99.90
2019-04-22T00:24:01.197Z,99.90
2019-04-22T00:26:33.556Z,99.90
2019-04-22T00:29:20.735Z,99.90
2019-04-22T00:31:40.671Z,99.90
2019-04-22T00:34:14.341Z,99.90
2019-04-22T00:36:44.888Z,99.90
2019-04-22T00:39:16.379Z,99.90
2019-04-22T00:41:43.823Z,99.90
2019-04-22T00:44:19.038Z,99.90
2019-04-22T00:46:46.447Z,99.90
2019-04-22T00:49:58.283Z,99.90
2019-04-22T00:52:07.724Z,99.90
2019-04-22T00:54:13.655Z,99.90
2019-04-22T00:56:44.056Z,99.90
2019-04-22T00:59:13.903Z,99.90
2019-04-22T01:01:46.721Z,99.90
2019-04-22T01:04:25.647Z,99.90
2019-04-22T01:06:49.871Z,99.90
2019-04-22T01:09:17.119Z,99.90
2019-04-22T01:11:44.619Z,99.90
2019-04-22T01:14:13.109Z,99.90
2019-04-22T01:16:48.580Z,99.90
2019-04-22T01:19:16.639Z,99.90
2019-04-22T01:21:45.067Z,99.90
2019-04-22T01:24:15.753Z,99.90
2019-04-22T01:26:43.471Z,99.90
2019-04-22T01:29:11.004Z,99.90
2019-04-22T01:31:31.467Z,99.90
2019-04-22T01:34:10.335Z,99.90
2019-04-22T01:36:48.379Z,99.90
2019-04-22T01:39:21.282Z,99.90
2019-04-22T01:44:29.569Z,99.90
2019-04-22T01:47:00.356Z,99.90
2019-04-22T01:49:27.620Z,99.90
2019-04-22T01:52:11.518Z,99.90
2019-04-22T01:54:35.158Z,99.90
2019-04-22T01:57:02.178Z,99.90
2019-04-22T01:59:20.101Z,99.90
2019-04-22T02:01:56.144Z,99.90
2019-04-22T02:04:33.561Z,99.90
2019-04-22T02:07:07.468Z,99.90
2019-04-22T02:09:38.410Z,99.90
2019-04-22T02:12:00.198Z,99.90
2019-04-22T02:14:34.122Z,99.90
2019-04-22T02:17:01.306Z,99.90
2019-04-22T02:19:36.117Z,99.90
2019-04-22T02:22:02.174Z,99.90
2019-04-22T02:24:33.308Z,99.90
2019-04-22T02:27:09.158Z,99.70
2019-04-22T02:29:37.312Z,98.60
2019-04-22T02:32:17.149Z,99.90
2019-04-22T02:34:40.026Z,98.30
2019-04-22T02:42:10.544Z,98.50
2019-04-22T02:44:37.403Z,99.70
2019-04-22T02:50:00.227Z,97.30
2019-04-22T02:52:11.627Z,97.30
2019-04-22T02:59:39.567Z,96.80
2019-04-22T03:02:14.271Z,96.80
2019-04-22T03:04:37.222Z,96.60
2019-04-22T03:07:05.504Z,96.20
2019-04-22T03:09:50.728Z,96.80
2019-04-22T03:12:27.114Z,96.70
2019-04-22T03:14:40.377Z,96.20
2019-04-22T03:17:16.249Z,95.80
2019-04-22T03:27:21.910Z,96.30
2019-04-22T03:37:48.812Z,96.10
2019-04-22T03:40:16.105Z,97.30
2019-04-22T03:42:45.775Z,97.50
2019-04-22T03:45:19.238Z,97.60
2019-04-22T03:50:24.352Z,98.00
2019-04-22T03:52:44.466Z,97.80
2019-04-22T03:55:09.273Z,98.50
2019-04-22T03:57:56.061Z,96.00
2019-04-22T04:05:29.109Z,95.40
2019-04-22T04:07:48.081Z,97.00
2019-04-22T04:10:22.638Z,98.10
2019-04-22T04:30:18.994Z,96.50
2019-04-22T04:35:23.495Z,97.10
2019-04-22T04:37:55.769Z,96.80
2019-04-22T04:40:20.664Z,97.20
2019-04-22T04:50:20.578Z,96.10
2019-04-22T04:53:01.481Z,97.50
2019-04-22T04:55:26.699Z,97.00
2019-04-22T05:05:16.683Z,97.20
2019-04-22T05:15:18.594Z,97.40
2019-04-22T05:17:55.056Z,97.20
2019-04-22T05:20:26.951Z,96.80
2019-04-22T05:22:44.512Z,96.50
2019-04-22T05:25:19.045Z,96.80
2019-04-22T05:33:01.470Z,96.50
2019-04-22T05:37:50.633Z,96.60
2019-04-22T05:40:22.075Z,96.10
2019-04-22T05:42:46.289Z,96.90
2019-04-22T05:45:17.317Z,96.00
2019-04-22T05:47:46.186Z,96.50
2019-04-22T05:52:51.340Z,95.30
2019-04-22T05:55:22.447Z,93.70
2019-04-22T05:57:51.006Z,93.10
2019-04-22T06:00:36.973Z,91.50
2019-04-22T06:02:56.617Z,90.40
2019-04-22T06:05:24.734Z,87.40
2019-04-22T06:07:53.816Z,89.30
2019-04-22T06:10:31.094Z,84.30
2019-04-22T06:12:56.483Z,82.50
2019-04-22T06:15:33.125Z,80.40
2019-04-22T06:18:12.385Z,82.30
2019-04-22T06:20:32.658Z,80.00
2019-04-22T06:23:04.524Z,78.90
2019-04-22T06:25:55.018Z,78.70
2019-04-22T06:28:06.471Z,76.20
2019-04-22T06:30:35.988Z,75.40
2019-04-22T06:33:13.301Z,78.00
2019-04-22T06:35:36.533Z,78.60
2019-04-22T06:38:30.507Z,78.10
2019-04-22T06:40:41.680Z,80.10
2019-04-22T06:45:34.795Z,79.70
2019-04-22T06:48:16.151Z,80.80
2019-04-22T06:53:09.913Z,78.90
2019-04-22T06:55:41.344Z,76.40
2019-04-22T06:58:13.465Z,76.90
2019-04-22T07:05:43.829Z,72.70
2019-04-22T07:08:30.485Z,73.70
2019-04-22T07:10:43.426Z,72.50
2019-04-22T07:13:11.637Z,72.30
2019-04-22T07:18:18.427Z,73.00
2019-04-22T07:20:44.229Z,73.60
2019-04-22T07:23:13.848Z,72.90
2019-04-22T07:25:40.800Z,74.40
2019-04-22T07:31:02.360Z,73.60
2019-04-22T07:38:20.572Z,73.00
2019-04-22T07:40:55.421Z,78.70
2019-04-22T07:43:22.675Z,74.90
2019-04-22T07:46:09.538Z,78.50
2019-04-22T07:48:27.929Z,78.20
2019-04-22T07:51:02.517Z,78.80
2019-04-22T07:53:10.048Z,78.50
2019-04-22T07:55:47.043Z,80.60
2019-04-22T07:58:18.479Z,79.50
2019-04-22T08:00:43.780Z,78.70
2019-04-22T08:03:22.672Z,78.80
2019-04-22T08:05:58.874Z,78.80
2019-04-22T08:08:26.425Z,80.10
2019-04-22T08:10:48.508Z,79.10
2019-04-22T08:13:17.061Z,80.50
2019-04-22T08:15:54.228Z,78.70
2019-04-22T08:18:22.092Z,78.10
2019-04-22T08:20:49.774Z,79.50
2019-04-22T08:23:23.874Z,78.80
2019-04-22T08:25:49.520Z,78.20
2019-04-22T08:28:26.239Z,78.50
2019-04-22T08:30:56.821Z,77.30
2019-04-22T08:36:06.453Z,77.30
2019-04-22T08:38:33.747Z,77.70
2019-04-22T08:41:21.505Z,78.40
2019-04-22T08:46:17.030Z,78.30
2019-04-22T08:48:44.264Z,77.70
2019-04-22T08:51:19.637Z,77.30
2019-04-22T08:53:49.939Z,78.60
2019-04-22T08:56:23.522Z,77.50
2019-04-22T08:58:50.764Z,75.70
2019-04-22T09:01:21.221Z,77.90
2019-04-22T09:03:47.142Z,77.50
2019-04-22T09:06:27.714Z,75.50
2019-04-22T09:08:50.455Z,74.30
2019-04-22T09:11:20.148Z,77.50
2019-04-22T09:13:50.720Z,75.30
2019-04-22T09:16:19.332Z,73.90
2019-04-22T09:18:49.354Z,74.80
2019-04-22T09:21:26.466Z,72.70
2019-04-22T09:23:54.006Z,72.50
2019-04-22T09:26:15.550Z,75.10
2019-04-22T09:28:54.499Z,72.70
2019-04-22T09:31:19.548Z,70.60
2019-04-22T09:33:43.389Z,71.60
2019-04-22T09:36:22.392Z,74.10
2019-04-22T09:38:47.299Z,73.90
2019-04-22T09:41:24.919Z,72.40
2019-04-22T09:43:53.629Z,71.90
2019-04-22T09:46:23.966Z,72.80
2019-04-22T09:48:51.890Z,72.50
2019-04-22T09:51:18.621Z,71.90
2019-04-22T09:53:54.870Z,74.20
2019-04-22T09:56:29.861Z,71.70
2019-04-22T09:58:58.553Z,67.90
2019-04-22T10:04:00.828Z,68.80
2019-04-22T10:06:29.450Z,69.80
2019-04-22T10:09:20.970Z,68.80
2019-04-22T10:16:31.349Z,71.00
2019-04-22T10:18:59.109Z,68.10
2019-04-22T10:21:37.256Z,67.50
2019-04-22T10:23:59.610Z,66.50
2019-04-22T10:26:33.442Z,63.40
2019-04-22T10:33:49.732Z,66.30
2019-04-22T10:36:07.895Z,66.10
2019-04-22T10:38:36.785Z,66.00
2019-04-22T10:41:05.469Z,62.80
2019-04-22T10:43:34.958Z,61.50
2019-04-22T10:46:04.090Z,61.40
2019-04-22T10:48:36.587Z,60.60
2019-04-22T10:51:04.678Z,61.30
2019-04-22T10:53:33.473Z,62.90
2019-04-22T10:56:03.218Z,62.90
2019-04-22T10:58:34.828Z,65.20
2019-04-22T11:01:03.584Z,61.40
2019-04-22T11:03:33.170Z,63.10
2019-04-22T11:06:03.283Z,63.00
2019-04-22T11:08:40.701Z,65.20
2019-04-22T11:11:18.044Z,64.00
2019-04-22T11:13:33.781Z,62.90
2019-04-22T11:16:03.486Z,62.90
2019-04-22T11:18:33.642Z,62.90
2019-04-22T11:21:02.397Z,62.10
2019-04-22T11:23:32.363Z,63.10
2019-04-22T11:26:01.789Z,64.80
2019-04-22T11:28:31.838Z,65.20
2019-04-22T11:31:00.835Z,66.60
2019-04-22T11:33:30.343Z,64.60
2019-04-22T11:35:59.963Z,61.40
2019-04-22T11:38:28.882Z,63.00
2019-04-22T11:41:01.127Z,64.70
2019-04-22T11:43:28.493Z,67.00
2019-04-22T11:45:57.536Z,65.50
2019-04-22T11:48:27.038Z,66.20
2019-04-22T11:50:55.810Z,63.30
2019-04-22T11:53:24.856Z,65.30
2019-04-22T11:55:54.885Z,57.00
2019-04-22T11:58:24.631Z,58.30
2019-04-22T12:00:55.149Z,57.10
2019-04-22T12:03:25.139Z,58.10
2019-04-22T12:05:55.452Z,58.80
2019-04-22T12:08:25.015Z,58.30
2019-04-22T12:11:00.309Z,58.80
2019-04-22T12:13:26.198Z,61.60
2019-04-22T12:15:55.452Z,59.30
2019-04-22T12:18:24.934Z,59.10
2019-04-22T12:20:55.099Z,62.60
2019-04-22T12:23:25.202Z,61.20
2019-04-22T12:26:01.257Z,58.40
2019-04-22T12:28:27.118Z,58.80
2019-04-22T12:30:55.778Z,58.10
2019-04-22T12:33:25.270Z,56.80
2019-04-22T12:35:54.752Z,57.10
2019-04-22T12:38:24.077Z,55.80
2019-04-22T12:40:58.459Z,56.30
2019-04-22T12:43:25.689Z,57.70
2019-04-22T12:45:54.314Z,53.60
2019-04-22T12:48:23.280Z,56.20
2019-04-22T12:50:54.240Z,56.50
2019-04-22T12:53:25.737Z,53.60
2019-04-22T12:55:55.234Z,55.20
2019-04-22T12:58:23.440Z,53.10
2019-04-22T13:00:52.839Z,54.50
2019-04-22T13:03:22.300Z,54.60
2019-04-22T13:05:51.462Z,55.10
2019-04-22T13:08:20.175Z,55.70
2019-04-22T13:10:55.556Z,55.20
2019-04-22T13:13:19.024Z,55.40
2019-04-22T13:15:48.928Z,52.60
2019-04-22T13:18:27.663Z,53.70
2019-04-22T13:20:48.637Z,54.30
2019-04-22T13:23:18.020Z,50.60
2019-04-22T13:25:47.237Z,48.40
2019-04-22T13:28:15.880Z,51.10
2019-04-22T13:30:44.519Z,50.20
2019-04-22T13:33:14.680Z,52.30
2019-04-22T13:35:45.722Z,52.40
2019-04-22T13:38:15.226Z,53.40
2019-04-22T13:40:57.903Z,53.50
2019-04-22T13:43:14.444Z,54.30
2019-04-22T13:45:43.700Z,55.40
2019-04-22T13:48:31.156Z,56.10
2019-04-22T13:51:18.622Z,56.00
2019-04-22T13:56:08.767Z,55.90
2019-04-22T13:58:31.307Z,53.10
2019-04-22T14:00:46.825Z,50.70
2019-04-22T14:03:35.652Z,52.10
2019-04-22T14:06:05.185Z,52.70
2019-04-22T14:08:35.268Z,52.80
2019-04-22T14:11:18.038Z,52.80
2019-04-22T14:13:34.259Z,52.50
2019-04-22T14:16:06.709Z,53.20
2019-04-22T14:18:36.935Z,52.40
2019-04-22T14:21:06.863Z,52.00
2019-04-22T14:23:35.536Z,54.70
2019-04-22T14:26:05.224Z,53.90
2019-04-22T14:28:35.443Z,52.00
2019-04-22T14:31:04.404Z,50.50
2019-04-22T14:33:34.161Z,52.00
2019-04-22T14:36:05.725Z,49.30
2019-04-22T14:38:34.725Z,49.80
2019-04-22T14:41:03.732Z,48.70
2019-04-22T14:43:59.975Z,48.90
2019-04-22T14:46:32.031Z,48.40
2019-04-22T14:48:57.653Z,48.20
2019-04-22T14:51:20.937Z,48.30
2019-04-22T14:53:52.593Z,49.70
2019-04-22T14:56:04.360Z,48.90
2019-04-22T14:58:33.097Z,49.60
2019-04-22T15:01:03.215Z,48.40
2019-04-22T15:03:33.129Z,49.00
2019-04-22T15:06:02.247Z,48.80
2019-04-22T15:08:31.216Z,48.20
2019-04-22T15:11:00.158Z,46.80
2019-04-22T15:13:29.441Z,47.00
2019-04-22T15:16:03.039Z,46.50
2019-04-22T15:18:36.089Z,47.60
2019-04-22T15:21:06.910Z,45.40
2019-04-22T15:23:35.742Z,45.20
2019-04-22T15:26:04.649Z,44.10
2019-04-22T15:28:33.452Z,45.00
2019-04-22T15:31:03.471Z,43.60
2019-04-22T15:33:33.093Z,44.10
2019-04-22T15:36:01.800Z,44.60
2019-04-22T15:38:30.386Z,43.10
2019-04-22T15:40:58.955Z,45.10
2019-04-22T15:43:30.890Z,45.00
2019-04-22T15:46:00.471Z,44.80
2019-04-22T15:48:29.209Z,46.40
2019-04-22T15:50:58.450Z,45.80
2019-04-22T15:53:27.565Z,46.90
2019-04-22T15:55:58.787Z,45.90
2019-04-22T15:58:28.043Z,45.90
2019-04-22T16:01:10.747Z,47.00
2019-04-22T16:03:32.275Z,53.30
2019-04-22T16:06:02.138Z,56.20
2019-04-22T16:08:34.228Z,56.10
2019-04-22T16:11:04.138Z,58.70
2019-04-22T16:13:36.126Z,59.50
2019-04-22T16:16:02.981Z,59.50
2019-04-22T16:18:32.576Z,59.80
2019-04-22T16:21:02.760Z,60.10
2019-04-22T16:23:34.104Z,61.10
2019-04-22T16:26:07.600Z,60.90
2019-04-22T16:28:37.640Z,59.80
2019-04-22T16:31:07.375Z,60.00
2019-04-22T16:33:39.730Z,60.70
2019-04-22T16:36:07.238Z,61.30
2019-04-22T16:38:36.913Z,61.80
2019-04-22T16:41:06.586Z,62.20
2019-04-22T16:43:36.497Z,62.00
2019-04-22T16:46:05.827Z,62.00
2019-04-22T16:48:35.678Z,62.30
2019-04-22T16:51:04.582Z,63.30
2019-04-22T16:53:34.905Z,61.00
2019-04-22T16:56:04.807Z,62.10
2019-04-22T16:58:34.719Z,61.70
2019-04-22T17:01:05.122Z,60.10
2019-04-22T17:03:52.393Z,61.00
2019-04-22T17:06:23.442Z,60.50
2019-04-22T17:08:52.904Z,59.60
2019-04-22T17:11:25.473Z,60.20
2019-04-22T17:13:55.194Z,59.80
2019-04-22T17:16:26.237Z,59.40
2019-04-22T17:18:56.437Z,59.70
2019-04-22T17:21:25.856Z,60.30
2019-04-22T17:23:55.971Z,60.70
2019-04-22T17:26:24.561Z,59.60
2019-04-22T17:28:53.463Z,59.30
2019-04-22T17:31:24.817Z,59.50
2019-04-22T17:33:54.938Z,60.70
2019-04-22T17:36:24.309Z,59.40
2019-04-22T17:39:00.519Z,59.20
2019-04-22T17:41:40.513Z,59.10
2019-04-22T17:44:19.140Z,59.10
2019-04-22T17:46:41.790Z,59.40
2019-04-22T17:49:34.039Z,58.80
2019-04-22T17:52:16.842Z,58.80
2019-04-22T17:54:48.197Z,58.40
2019-04-22T17:57:24.116Z,58.80
2019-04-22T17:59:56.805Z,58.50
2019-04-22T18:02:22.544Z,58.30
2019-04-22T18:04:40.347Z,58.80
2019-04-22T18:07:31.494Z,58.80
2019-04-22T18:15:14.657Z,58.00
2019-04-22T18:17:30.509Z,58.30
2019-04-22T18:19:53.124Z,58.10
2019-04-22T18:22:21.751Z,58.70
2019-04-22T18:24:53.086Z,58.40
2019-04-22T18:29:55.862Z,58.30
2019-04-22T18:32:20.287Z,58.70
2019-04-22T18:34:53.220Z,58.40
2019-04-22T18:37:25.185Z,58.80
2019-04-22T18:40:01.906Z,60.10
2019-04-22T18:42:26.811Z,59.50
2019-04-22T18:45:12.653Z,58.50
2019-04-22T18:47:29.458Z,60.60
2019-04-22T18:49:59.259Z,58.30
2019-04-22T18:52:40.205Z,59.00
2019-04-22T18:55:14.706Z,58.40
2019-04-22T18:58:02.607Z,58.70
2019-04-22T19:00:23.454Z,58.90
2019-04-22T19:02:59.367Z,58.70
2019-04-22T19:05:42.663Z,59.20
2019-04-22T19:15:54.281Z,59.10
2019-04-22T19:18:24.204Z,59.10
2019-04-22T19:20:59.431Z,60.30
2019-04-22T19:23:22.687Z,59.30
2019-04-22T19:25:48.639Z,59.20
2019-04-22T19:28:29.202Z,59.30
2019-04-22T19:31:01.590Z,59.70
2019-04-22T19:33:25.052Z,59.20
2019-04-22T19:35:52.003Z,59.50
2019-04-22T19:38:15.664Z,58.90
2019-04-22T19:41:06.870Z,58.90
2019-04-22T19:43:28.653Z,59.00
2019-04-22T19:45:55.403Z,59.00
2019-04-22T19:48:32.940Z,61.30
2019-04-22T19:51:05.840Z,60.60
2019-04-22T19:53:29.707Z,59.00
2019-04-22T19:55:53.799Z,59.20
2019-04-22T19:58:27.764Z,59.70
2019-04-22T20:01:13.463Z,59.80
2019-04-22T20:03:50.843Z,60.10
2019-04-22T20:06:16.554Z,62.20
2019-04-22T20:08:51.005Z,61.20
2019-04-22T20:11:23.193Z,61.20
2019-04-22T20:13:47.997Z,61.40
2019-04-22T20:16:11.513Z,61.30
2019-04-22T20:18:52.009Z,62.50
2019-04-22T20:21:27.011Z,61.50
2019-04-22T20:23:42.056Z,62.10
2019-04-22T20:26:16.192Z,62.50
2019-04-22T20:28:52.716Z,63.10
2019-04-22T20:31:24.605Z,63.70
2019-04-22T20:33:56.085Z,64.10
2019-04-22T20:36:47.550Z,64.70
2019-04-22T20:38:51.096Z,65.30
2019-04-22T20:41:22.802Z,65.50
2019-04-22T20:43:56.553Z,64.90
2019-04-22T20:46:28.433Z,66.10
2019-04-22T20:49:04.975Z,65.60
2019-04-22T20:51:38.503Z,66.10
2019-04-22T20:54:02.137Z,66.80
2019-04-22T20:56:26.729Z,67.60
2019-04-22T20:58:56.079Z,67.10
2019-04-22T21:01:28.372Z,66.90
2019-04-22T21:03:46.928Z,68.70
2019-04-22T21:06:29.366Z,67.90
2019-04-22T21:09:02.233Z,68.70
2019-04-22T21:11:30.138Z,69.20
2019-04-22T21:13:56.100Z,68.40
2019-04-22T21:16:34.655Z,69.10
2019-04-22T21:18:52.250Z,69.20
2019-04-22T21:21:32.164Z,69.40
2019-04-22T21:23:54.445Z,70.10
2019-04-22T21:26:29.089Z,70.00
2019-04-22T21:29:01.201Z,71.50
2019-04-22T21:31:33.296Z,70.40
2019-04-22T21:33:59.454Z,71.90
2019-04-22T21:36:36.625Z,70.60
2019-04-22T21:39:00.826Z,71.60
2019-04-22T21:41:34.097Z,73.20
2019-04-22T21:44:05.569Z,71.90
2019-04-22T21:46:35.328Z,72.60
2019-04-22T21:49:07.457Z,71.00
2019-04-22T21:51:39.989Z,71.10
2019-04-22T21:54:12.242Z,71.20
2019-04-22T21:57:07.508Z,71.00
2019-04-22T21:59:26.883Z,72.30
2019-04-22T22:02:04.510Z,72.30
2019-04-22T22:04:32.149Z,71.70
2019-04-22T22:06:53.070Z,73.00
2019-04-22T22:09:39.142Z,73.00
2019-04-22T22:11:59.360Z,71.80
2019-04-22T22:14:42.555Z,74.10
2019-04-22T22:17:01.330Z,71.30
2019-04-22T22:19:37.757Z,70.00
2019-04-22T22:22:28.063Z,72.00
2019-04-22T22:24:48.296Z,70.60
2019-04-22T22:27:14.642Z,70.10
2019-04-22T22:30:05.500Z,71.00
2019-04-22T22:32:22.008Z,71.40
2019-04-22T22:34:46.492Z,70.70
2019-04-22T22:37:10.788Z,70.60
2019-04-22T22:39:40.457Z,70.70
2019-04-22T22:41:59.574Z,71.20
2019-04-22T22:44:38.020Z,72.00
2019-04-22T22:47:18.230Z,71.40
2019-04-22T22:49:52.857Z,71.70
2019-04-22T22:52:44.856Z,72.00
2019-04-22T22:54:54.099Z,73.00
2019-04-22T22:57:29.308Z,71.50
2019-04-22T22:59:50.054Z,69.50
2019-04-22T23:02:22.344Z,69.70
2019-04-22T23:04:51.162Z,69.70
2019-04-22T23:07:31.727Z,69.80
2019-04-22T23:09:58.613Z,71.70
2019-04-22T23:12:34.741Z,70.70
2019-04-22T23:14:57.626Z,69.60
2019-04-22T23:17:11.761Z,69.80
2019-04-22T23:19:41.970Z,70.30
2019-04-22T23:22:20.603Z,71.90
2019-04-22T23:25:00.238Z,71.10
2019-04-22T23:27:34.636Z,69.60
2019-04-22T23:30:02.449Z,70.10
2019-04-22T23:32:32.990Z,71.10
2019-04-22T23:35:14.709Z,70.60
2019-04-22T23:37:44.689Z,72.10
2019-04-22T23:40:24.330Z,71.60
2019-04-22T23:42:53.839Z,71.10
2019-04-22T23:45:25.081Z,70.30
2019-04-22T23:47:41.189Z,70.90
2019-04-22T23:50:19.687Z,71.00
2019-04-22T23:52:54.623Z,71.10
2019-04-22T23:55:27.044Z,71.80
2019-04-22T23:58:19.126Z,72.40
